sensor_id;sensor_type;location;lat;lon;timestamp;P1;durP1;ratioP1;P2;durP2;ratioP2
78224;SDS011;67498;53.650;10.090;2023-11-19T00:01:00;3.47;;;1.23;;
78224;SDS011;67498;53.650;10.090;2023-11-19T00:03:26;5.95;;;0.80;;
78224;SDS011;67498;53.650;10.090;2023-11-19T00:05:56;4.37;;;1.17;;
78224;SDS011;67498;53.650;10.090;2023-11-19T00:08:24;4.38;;;1.27;;
78224;SDS011;67498;53.650;10.090;2023-11-19T00:10:49;2.27;;;0.80;;
78224;SDS011;67498;53.650;10.090;2023-11-19T00:13:16;3.80;;;0.93;;
78224;SDS011;67498;53.650;10.090;2023-11-19T00:15:41;3.97;;;1.13;;
78224;SDS011;67498;53.650;10.090;2023-11-19T00:18:06;2.03;;;0.40;;
78224;SDS011;67498;53.650;10.090;2023-11-19T00:20:32;3.17;;;0.80;;
78224;SDS011;67498;53.650;10.090;2023-11-19T00:23:00;1.88;;;0.60;;
78224;SDS011;67498;53.650;10.090;2023-11-19T00:25:27;3.00;;;0.73;;
78224;SDS011;67498;53.650;10.090;2023-11-19T00:27:52;2.33;;;0.37;;
78224;SDS011;67498;53.650;10.090;2023-11-19T00:30:18;2.10;;;0.53;;
78224;SDS011;67498;53.650;10.090;2023-11-19T00:32:44;1.75;;;0.68;;
78224;SDS011;67498;53.650;10.090;2023-11-19T00:35:10;1.93;;;0.40;;
78224;SDS011;67498;53.650;10.090;2023-11-19T00:37:36;3.10;;;0.90;;
78224;SDS011;67498;53.650;10.090;2023-11-19T00:40:01;2.53;;;0.57;;
78224;SDS011;67498;53.650;10.090;2023-11-19T00:42:30;5.97;;;0.50;;
78224;SDS011;67498;53.650;10.090;2023-11-19T00:44:55;1.60;;;0.40;;
78224;SDS011;67498;53.650;10.090;2023-11-19T00:47:34;2.63;;;0.75;;
78224;SDS011;67498;53.650;10.090;2023-11-19T00:50:00;1.97;;;0.63;;
78224;SDS011;67498;53.650;10.090;2023-11-19T00:52:25;1.30;;;0.28;;
78224;SDS011;67498;53.650;10.090;2023-11-19T00:54:51;2.00;;;0.50;;
78224;SDS011;67498;53.650;10.090;2023-11-19T00:57:16;4.00;;;1.20;;
78224;SDS011;67498;53.650;10.090;2023-11-19T00:59:42;2.57;;;0.60;;
78224;SDS011;67498;53.650;10.090;2023-11-19T01:02:08;2.17;;;0.47;;
78224;SDS011;67498;53.650;10.090;2023-11-19T01:04:33;2.27;;;0.73;;
78224;SDS011;67498;53.650;10.090;2023-11-19T01:07:01;2.10;;;0.40;;
78224;SDS011;67498;53.650;10.090;2023-11-19T01:09:28;3.70;;;0.80;;
78224;SDS011;67498;53.650;10.090;2023-11-19T01:11:54;2.20;;;0.68;;
78224;SDS011;67498;53.650;10.090;2023-11-19T01:14:19;2.27;;;0.50;;
78224;SDS011;67498;53.650;10.090;2023-11-19T01:16:45;3.27;;;0.80;;
78224;SDS011;67498;53.650;10.090;2023-11-19T01:19:11;2.17;;;0.45;;
78224;SDS011;67498;53.650;10.090;2023-11-19T01:21:36;1.10;;;0.20;;
78224;SDS011;67498;53.650;10.090;2023-11-19T01:24:01;2.00;;;0.40;;
78224;SDS011;67498;53.650;10.090;2023-11-19T01:26:28;1.67;;;0.40;;
78224;SDS011;67498;53.650;10.090;2023-11-19T01:28:54;1.30;;;0.30;;
78224;SDS011;67498;53.650;10.090;2023-11-19T01:31:19;1.47;;;0.37;;
78224;SDS011;67498;53.650;10.090;2023-11-19T01:33:44;0.87;;;0.20;;
78224;SDS011;67498;53.650;10.090;2023-11-19T01:36:14;1.80;;;0.35;;
78224;SDS011;67498;53.650;10.090;2023-11-19T01:38:39;2.00;;;0.37;;
78224;SDS011;67498;53.650;10.090;2023-11-19T01:41:05;1.50;;;0.40;;
78224;SDS011;67498;53.650;10.090;2023-11-19T01:43:37;0.63;;;0.10;;
78224;SDS011;67498;53.650;10.090;2023-11-19T01:46:06;3.13;;;0.20;;
78224;SDS011;67498;53.650;10.090;2023-11-19T01:48:34;2.28;;;0.57;;
78224;SDS011;67498;53.650;10.090;2023-11-19T01:51:01;1.65;;;0.32;;
78224;SDS011;67498;53.650;10.090;2023-11-19T01:53:28;1.38;;;0.20;;
78224;SDS011;67498;53.650;10.090;2023-11-19T01:55:55;0.70;;;0.10;;
78224;SDS011;67498;53.650;10.090;2023-11-19T01:58:21;1.67;;;0.30;;
78224;SDS011;67498;53.650;10.090;2023-11-19T02:00:48;0.40;;;0.10;;
78224;SDS011;67498;53.650;10.090;2023-11-19T02:03:14;0.90;;;0.20;;
78224;SDS011;67498;53.650;10.090;2023-11-19T02:05:39;0.70;;;0.20;;
78224;SDS011;67498;53.650;10.090;2023-11-19T02:08:05;1.27;;;0.17;;
78224;SDS011;67498;53.650;10.090;2023-11-19T02:10:30;0.93;;;0.10;;
78224;SDS011;67498;53.650;10.090;2023-11-19T02:12:57;1.60;;;0.30;;
78224;SDS011;67498;53.650;10.090;2023-11-19T02:15:22;0.88;;;0.10;;
78224;SDS011;67498;53.650;10.090;2023-11-19T02:17:49;1.33;;;0.30;;
78224;SDS011;67498;53.650;10.090;2023-11-19T02:20:15;1.23;;;0.20;;
78224;SDS011;67498;53.650;10.090;2023-11-19T02:22:40;1.23;;;0.20;;
78224;SDS011;67498;53.650;10.090;2023-11-19T02:25:07;1.07;;;0.20;;
78224;SDS011;67498;53.650;10.090;2023-11-19T02:27:41;1.63;;;0.20;;
78224;SDS011;67498;53.650;10.090;2023-11-19T02:30:11;1.30;;;0.30;;
78224;SDS011;67498;53.650;10.090;2023-11-19T02:32:36;1.10;;;0.30;;
78224;SDS011;67498;53.650;10.090;2023-11-19T02:35:03;1.13;;;0.20;;
78224;SDS011;67498;53.650;10.090;2023-11-19T02:37:29;1.17;;;0.20;;
78224;SDS011;67498;53.650;10.090;2023-11-19T02:39:54;0.90;;;0.20;;
78224;SDS011;67498;53.650;10.090;2023-11-19T02:42:20;1.20;;;0.30;;
78224;SDS011;67498;53.650;10.090;2023-11-19T02:44:45;1.43;;;0.30;;
78224;SDS011;67498;53.650;10.090;2023-11-19T02:47:11;0.93;;;0.10;;
78224;SDS011;67498;53.650;10.090;2023-11-19T02:49:36;0.97;;;0.20;;
78224;SDS011;67498;53.650;10.090;2023-11-19T02:52:02;1.80;;;0.30;;
78224;SDS011;67498;53.650;10.090;2023-11-19T02:54:30;2.22;;;0.38;;
78224;SDS011;67498;53.650;10.090;2023-11-19T02:56:59;0.75;;;0.10;;
78224;SDS011;67498;53.650;10.090;2023-11-19T02:59:26;0.93;;;0.30;;
78224;SDS011;67498;53.650;10.090;2023-11-19T03:01:52;1.33;;;0.30;;
78224;SDS011;67498;53.650;10.090;2023-11-19T03:04:18;0.77;;;0.10;;
78224;SDS011;67498;53.650;10.090;2023-11-19T03:06:45;0.93;;;0.20;;
78224;SDS011;67498;53.650;10.090;2023-11-19T03:09:10;0.65;;;0.10;;
78224;SDS011;67498;53.650;10.090;2023-11-19T03:11:36;1.20;;;0.20;;
78224;SDS011;67498;53.650;10.090;2023-11-19T03:14:01;1.20;;;0.20;;
78224;SDS011;67498;53.650;10.090;2023-11-19T03:16:28;1.38;;;0.30;;
78224;SDS011;67498;53.650;10.090;2023-11-19T03:18:53;0.97;;;0.20;;
78224;SDS011;67498;53.650;10.090;2023-11-19T03:21:18;1.23;;;0.20;;
78224;SDS011;67498;53.650;10.090;2023-11-19T03:23:44;1.63;;;0.20;;
78224;SDS011;67498;53.650;10.090;2023-11-19T03:26:10;1.07;;;0.20;;
78224;SDS011;67498;53.650;10.090;2023-11-19T03:28:35;1.58;;;0.35;;
78224;SDS011;67498;53.650;10.090;2023-11-19T03:31:04;1.47;;;0.23;;
78224;SDS011;67498;53.650;10.090;2023-11-19T03:33:31;1.27;;;0.20;;
78224;SDS011;67498;53.650;10.090;2023-11-19T03:35:56;1.50;;;0.37;;
78224;SDS011;67498;53.650;10.090;2023-11-19T03:38:22;0.73;;;0.10;;
78224;SDS011;67498;53.650;10.090;2023-11-19T03:40:48;1.30;;;0.22;;
78224;SDS011;67498;53.650;10.090;2023-11-19T03:43:14;1.23;;;0.20;;
78224;SDS011;67498;53.650;10.090;2023-11-19T03:45:39;1.23;;;0.23;;
78224;SDS011;67498;53.650;10.090;2023-11-19T03:48:04;2.33;;;0.57;;
78224;SDS011;67498;53.650;10.090;2023-11-19T03:50:30;1.00;;;0.20;;
78224;SDS011;67498;53.650;10.090;2023-11-19T03:52:55;0.80;;;0.10;;
78224;SDS011;67498;53.650;10.090;2023-11-19T03:55:20;2.87;;;0.63;;
78224;SDS011;67498;53.650;10.090;2023-11-19T03:57:45;1.97;;;0.50;;
78224;SDS011;67498;53.650;10.090;2023-11-19T04:00:12;2.58;;;0.57;;
78224;SDS011;67498;53.650;10.090;2023-11-19T04:02:39;1.33;;;0.30;;
78224;SDS011;67498;53.650;10.090;2023-11-19T04:05:05;1.60;;;0.35;;
78224;SDS011;67498;53.650;10.090;2023-11-19T04:07:31;1.48;;;0.30;;
78224;SDS011;67498;53.650;10.090;2023-11-19T04:09:57;1.93;;;0.53;;
78224;SDS011;67498;53.650;10.090;2023-11-19T04:12:22;1.13;;;0.30;;
78224;SDS011;67498;53.650;10.090;2023-11-19T04:14:48;1.87;;;0.57;;
78224;SDS011;67498;53.650;10.090;2023-11-19T04:17:13;2.20;;;0.53;;
78224;SDS011;67498;53.650;10.090;2023-11-19T04:19:38;1.13;;;0.30;;
78224;SDS011;67498;53.650;10.090;2023-11-19T04:22:06;1.95;;;0.30;;
78224;SDS011;67498;53.650;10.090;2023-11-19T04:24:34;2.38;;;0.60;;
78224;SDS011;67498;53.650;10.090;2023-11-19T04:27:00;2.00;;;0.70;;
78224;SDS011;67498;53.650;10.090;2023-11-19T04:29:25;1.73;;;0.70;;
78224;SDS011;67498;53.650;10.090;2023-11-19T04:31:50;0.57;;;0.10;;
78224;SDS011;67498;53.650;10.090;2023-11-19T04:34:16;2.17;;;0.40;;
78224;SDS011;67498;53.650;10.090;2023-11-19T04:36:41;2.10;;;0.50;;
78224;SDS011;67498;53.650;10.090;2023-11-19T04:39:06;1.80;;;0.50;;
78224;SDS011;67498;53.650;10.090;2023-11-19T04:41:45;3.17;;;0.57;;
78224;SDS011;67498;53.650;10.090;2023-11-19T04:44:12;2.08;;;0.50;;
78224;SDS011;67498;53.650;10.090;2023-11-19T04:46:37;2.37;;;0.77;;
78224;SDS011;67498;53.650;10.090;2023-11-19T04:49:02;4.23;;;1.03;;
78224;SDS011;67498;53.650;10.090;2023-11-19T04:51:27;2.70;;;0.93;;
78224;SDS011;67498;53.650;10.090;2023-11-19T04:53:53;2.17;;;0.67;;
78224;SDS011;67498;53.650;10.090;2023-11-19T04:56:18;3.27;;;0.87;;
78224;SDS011;67498;53.650;10.090;2023-11-19T04:58:44;2.97;;;0.63;;
78224;SDS011;67498;53.650;10.090;2023-11-19T05:01:13;3.00;;;0.80;;
78224;SDS011;67498;53.650;10.090;2023-11-19T05:03:40;3.50;;;0.93;;
78224;SDS011;67498;53.650;10.090;2023-11-19T05:06:06;3.20;;;0.93;;
78224;SDS011;67498;53.650;10.090;2023-11-19T05:08:32;6.40;;;0.60;;
78224;SDS011;67498;53.650;10.090;2023-11-19T05:10:57;5.30;;;1.53;;
78224;SDS011;67498;53.650;10.090;2023-11-19T05:13:23;3.92;;;1.60;;
78224;SDS011;67498;53.650;10.090;2023-11-19T05:15:48;4.57;;;1.10;;
78224;SDS011;67498;53.650;10.090;2023-11-19T05:18:13;3.77;;;1.00;;
78224;SDS011;67498;53.650;10.090;2023-11-19T05:20:38;2.57;;;0.93;;
78224;SDS011;67498;53.650;10.090;2023-11-19T05:23:04;3.20;;;1.20;;
78224;SDS011;67498;53.650;10.090;2023-11-19T05:25:29;6.90;;;1.97;;
78224;SDS011;67498;53.650;10.090;2023-11-19T05:27:54;5.27;;;2.13;;
78224;SDS011;67498;53.650;10.090;2023-11-19T05:30:20;5.53;;;1.73;;
78224;SDS011;67498;53.650;10.090;2023-11-19T05:32:45;6.17;;;2.53;;
78224;SDS011;67498;53.650;10.090;2023-11-19T05:35:11;8.27;;;2.85;;
78224;SDS011;67498;53.650;10.090;2023-11-19T05:37:36;5.53;;;2.08;;
78224;SDS011;67498;53.650;10.090;2023-11-19T05:40:02;5.53;;;1.83;;
78224;SDS011;67498;53.650;10.090;2023-11-19T05:42:29;5.45;;;1.83;;
78224;SDS011;67498;53.650;10.090;2023-11-19T05:44:54;9.63;;;3.00;;
78224;SDS011;67498;53.650;10.090;2023-11-19T05:47:20;10.13;;;2.47;;
78224;SDS011;67498;53.650;10.090;2023-11-19T05:49:45;7.23;;;2.50;;
78224;SDS011;67498;53.650;10.090;2023-11-19T05:52:10;7.13;;;2.30;;
78224;SDS011;67498;53.650;10.090;2023-11-19T05:54:37;9.68;;;2.65;;
78224;SDS011;67498;53.650;10.090;2023-11-19T05:57:04;9.00;;;3.15;;
78224;SDS011;67498;53.650;10.090;2023-11-19T05:59:30;10.57;;;3.57;;
78224;SDS011;67498;53.650;10.090;2023-11-19T06:01:57;7.60;;;2.15;;
78224;SDS011;67498;53.650;10.090;2023-11-19T06:04:22;8.00;;;2.53;;
78224;SDS011;67498;53.650;10.090;2023-11-19T06:06:48;13.27;;;4.67;;
78224;SDS011;67498;53.650;10.090;2023-11-19T06:09:13;27.52;;;11.13;;
78224;SDS011;67498;53.650;10.090;2023-11-19T06:11:39;11.03;;;4.50;;
78224;SDS011;67498;53.650;10.090;2023-11-19T06:14:04;7.47;;;2.90;;
78224;SDS011;67498;53.650;10.090;2023-11-19T06:16:30;8.30;;;3.25;;
78224;SDS011;67498;53.650;10.090;2023-11-19T06:18:56;9.60;;;2.40;;
78224;SDS011;67498;53.650;10.090;2023-11-19T06:21:21;14.03;;;3.00;;
78224;SDS011;67498;53.650;10.090;2023-11-19T06:23:46;14.15;;;3.10;;
78224;SDS011;67498;53.650;10.090;2023-11-19T06:26:12;8.27;;;2.87;;
78224;SDS011;67498;53.650;10.090;2023-11-19T06:28:39;11.02;;;3.63;;
78224;SDS011;67498;53.650;10.090;2023-11-19T06:31:04;8.63;;;2.97;;
78224;SDS011;67498;53.650;10.090;2023-11-19T06:33:29;9.87;;;3.30;;
78224;SDS011;67498;53.650;10.090;2023-11-19T06:35:54;15.83;;;3.37;;
78224;SDS011;67498;53.650;10.090;2023-11-19T06:38:20;15.13;;;4.00;;
78224;SDS011;67498;53.650;10.090;2023-11-19T06:40:45;11.73;;;3.20;;
78224;SDS011;67498;53.650;10.090;2023-11-19T06:43:10;11.83;;;3.67;;
78224;SDS011;67498;53.650;10.090;2023-11-19T06:45:36;6.20;;;2.63;;
78224;SDS011;67498;53.650;10.090;2023-11-19T06:48:04;11.27;;;4.18;;
78224;SDS011;67498;53.650;10.090;2023-11-19T06:50:30;16.10;;;3.00;;
78224;SDS011;67498;53.650;10.090;2023-11-19T06:52:55;20.73;;;4.00;;
78224;SDS011;67498;53.650;10.090;2023-11-19T06:55:21;32.67;;;3.70;;
78224;SDS011;67498;53.650;10.090;2023-11-19T06:57:46;24.70;;;3.97;;
78224;SDS011;67498;53.650;10.090;2023-11-19T07:00:11;8.37;;;3.50;;
78224;SDS011;67498;53.650;10.090;2023-11-19T07:02:37;11.00;;;3.15;;
78224;SDS011;67498;53.650;10.090;2023-11-19T07:05:02;14.80;;;4.33;;
78224;SDS011;67498;53.650;10.090;2023-11-19T07:07:30;22.80;;;4.05;;
78224;SDS011;67498;53.650;10.090;2023-11-19T07:09:58;12.00;;;3.22;;
78224;SDS011;67498;53.650;10.090;2023-11-19T07:12:23;23.30;;;3.87;;
78224;SDS011;67498;53.650;10.090;2023-11-19T07:14:51;19.90;;;3.45;;
78224;SDS011;67498;53.650;10.090;2023-11-19T07:17:17;13.95;;;2.40;;
78224;SDS011;67498;53.650;10.090;2023-11-19T07:19:42;6.03;;;2.13;;
78224;SDS011;67498;53.650;10.090;2023-11-19T07:22:07;7.53;;;2.50;;
78224;SDS011;67498;53.650;10.090;2023-11-19T07:24:33;13.73;;;2.27;;
78224;SDS011;67498;53.650;10.090;2023-11-19T07:26:58;9.60;;;2.80;;
78224;SDS011;67498;53.650;10.090;2023-11-19T07:29:23;7.33;;;1.43;;
78224;SDS011;67498;53.650;10.090;2023-11-19T07:31:49;20.97;;;3.13;;
78224;SDS011;67498;53.650;10.090;2023-11-19T07:34:14;8.43;;;2.07;;
78224;SDS011;67498;53.650;10.090;2023-11-19T07:36:40;23.00;;;1.70;;
78224;SDS011;67498;53.650;10.090;2023-11-19T07:39:06;13.55;;;1.90;;
78224;SDS011;67498;53.650;10.090;2023-11-19T07:41:31;15.30;;;2.10;;
78224;SDS011;67498;53.650;10.090;2023-11-19T07:43:57;13.60;;;2.03;;
78224;SDS011;67498;53.650;10.090;2023-11-19T07:46:23;8.63;;;1.60;;
78224;SDS011;67498;53.650;10.090;2023-11-19T07:48:50;18.92;;;1.63;;
78224;SDS011;67498;53.650;10.090;2023-11-19T07:51:15;22.63;;;2.00;;
78224;SDS011;67498;53.650;10.090;2023-11-19T07:53:40;7.13;;;1.20;;
78224;SDS011;67498;53.650;10.090;2023-11-19T07:56:06;6.90;;;1.65;;
78224;SDS011;67498;53.650;10.090;2023-11-19T07:58:33;13.33;;;1.50;;
78224;SDS011;67498;53.650;10.090;2023-11-19T08:00:58;9.73;;;1.57;;
78224;SDS011;67498;53.650;10.090;2023-11-19T08:03:23;29.97;;;8.53;;
78224;SDS011;67498;53.650;10.090;2023-11-19T08:05:49;14.93;;;3.40;;
78224;SDS011;67498;53.650;10.090;2023-11-19T08:08:14;22.37;;;2.53;;
78224;SDS011;67498;53.650;10.090;2023-11-19T08:10:40;6.03;;;1.10;;
78224;SDS011;67498;53.650;10.090;2023-11-19T08:13:05;14.52;;;0.73;;
78224;SDS011;67498;53.650;10.090;2023-11-19T08:15:31;15.10;;;1.63;;
78224;SDS011;67498;53.650;10.090;2023-11-19T08:17:57;11.35;;;2.33;;
78224;SDS011;67498;53.650;10.090;2023-11-19T08:20:22;19.30;;;2.23;;
78224;SDS011;67498;53.650;10.090;2023-11-19T08:22:48;9.10;;;1.33;;
78224;SDS011;67498;53.650;10.090;2023-11-19T08:25:13;7.60;;;1.23;;
78224;SDS011;67498;53.650;10.090;2023-11-19T08:27:39;10.67;;;1.50;;
78224;SDS011;67498;53.650;10.090;2023-11-19T08:30:04;7.50;;;1.63;;
78224;SDS011;67498;53.650;10.090;2023-11-19T08:32:31;9.00;;;1.33;;
78224;SDS011;67498;53.650;10.090;2023-11-19T08:34:56;8.23;;;1.63;;
78224;SDS011;67498;53.650;10.090;2023-11-19T08:37:22;10.20;;;1.50;;
78224;SDS011;67498;53.650;10.090;2023-11-19T08:39:47;10.10;;;1.20;;
78224;SDS011;67498;53.650;10.090;2023-11-19T08:42:13;10.93;;;1.33;;
78224;SDS011;67498;53.650;10.090;2023-11-19T08:44:38;8.53;;;1.57;;
78224;SDS011;67498;53.650;10.090;2023-11-19T08:47:06;13.87;;;1.40;;
78224;SDS011;67498;53.650;10.090;2023-11-19T08:49:32;8.13;;;1.33;;
78224;SDS011;67498;53.650;10.090;2023-11-19T08:51:57;17.13;;;1.50;;
78224;SDS011;67498;53.650;10.090;2023-11-19T08:54:22;22.40;;;5.53;;
78224;SDS011;67498;53.650;10.090;2023-11-19T08:56:48;9.77;;;1.80;;
78224;SDS011;67498;53.650;10.090;2023-11-19T08:59:13;24.55;;;3.10;;
78224;SDS011;67498;53.650;10.090;2023-11-19T09:01:41;4.07;;;1.20;;
78224;SDS011;67498;53.650;10.090;2023-11-19T09:04:06;5.63;;;0.73;;
78224;SDS011;67498;53.650;10.090;2023-11-19T09:06:32;15.90;;;1.23;;
78224;SDS011;67498;53.650;10.090;2023-11-19T09:08:58;15.93;;;1.88;;
78224;SDS011;67498;53.650;10.090;2023-11-19T09:11:27;4.10;;;0.90;;
78224;SDS011;67498;53.650;10.090;2023-11-19T09:13:52;15.43;;;1.70;;
78224;SDS011;67498;53.650;10.090;2023-11-19T09:16:17;4.00;;;1.17;;
78224;SDS011;67498;53.650;10.090;2023-11-19T09:18:43;22.00;;;2.17;;
78224;SDS011;67498;53.650;10.090;2023-11-19T09:21:10;6.20;;;1.27;;
78224;SDS011;67498;53.650;10.090;2023-11-19T09:23:35;7.13;;;1.55;;
78224;SDS011;67498;53.650;10.090;2023-11-19T09:26:04;12.85;;;1.92;;
78224;SDS011;67498;53.650;10.090;2023-11-19T09:28:30;9.73;;;1.38;;
78224;SDS011;67498;53.650;10.090;2023-11-19T09:30:56;4.77;;;1.30;;
78224;SDS011;67498;53.650;10.090;2023-11-19T09:33:31;13.00;;;2.20;;
78224;SDS011;67498;53.650;10.090;2023-11-19T09:35:59;16.37;;;2.07;;
78224;SDS011;67498;53.650;10.090;2023-11-19T09:38:27;15.95;;;1.80;;
78224;SDS011;67498;53.650;10.090;2023-11-19T09:40:53;16.27;;;1.60;;
78224;SDS011;67498;53.650;10.090;2023-11-19T09:43:18;10.17;;;1.90;;
78224;SDS011;67498;53.650;10.090;2023-11-19T09:45:52;8.90;;;1.70;;
78224;SDS011;67498;53.650;10.090;2023-11-19T09:48:19;11.93;;;1.57;;
78224;SDS011;67498;53.650;10.090;2023-11-19T09:50:45;10.77;;;1.35;;
78224;SDS011;67498;53.650;10.090;2023-11-19T09:53:12;14.32;;;1.30;;
78224;SDS011;67498;53.650;10.090;2023-11-19T09:55:38;23.03;;;1.67;;
78224;SDS011;67498;53.650;10.090;2023-11-19T09:58:07;15.30;;;1.33;;
78224;SDS011;67498;53.650;10.090;2023-11-19T10:00:33;28.47;;;3.03;;
78224;SDS011;67498;53.650;10.090;2023-11-19T10:02:59;32.45;;;1.70;;
78224;SDS011;67498;53.650;10.090;2023-11-19T10:05:25;12.55;;;1.33;;
78224;SDS011;67498;53.650;10.090;2023-11-19T10:07:51;19.60;;;1.70;;
78224;SDS011;67498;53.650;10.090;2023-11-19T10:10:17;12.40;;;1.77;;
78224;SDS011;67498;53.650;10.090;2023-11-19T10:12:45;14.47;;;2.30;;
78224;SDS011;67498;53.650;10.090;2023-11-19T10:15:19;10.02;;;1.73;;
78224;SDS011;67498;53.650;10.090;2023-11-19T10:17:55;25.15;;;2.90;;
78224;SDS011;67498;53.650;10.090;2023-11-19T10:20:21;24.92;;;1.83;;
78224;SDS011;67498;53.650;10.090;2023-11-19T10:22:47;9.60;;;1.47;;
78224;SDS011;67498;53.650;10.090;2023-11-19T10:25:22;15.57;;;2.23;;
78224;SDS011;67498;53.650;10.090;2023-11-19T10:27:48;14.05;;;1.55;;
78224;SDS011;67498;53.650;10.090;2023-11-19T10:30:21;19.80;;;1.45;;
78224;SDS011;67498;53.650;10.090;2023-11-19T10:33:07;36.22;;;2.67;;
78224;SDS011;67498;53.650;10.090;2023-11-19T10:35:54;9.90;;;1.98;;
78224;SDS011;67498;53.650;10.090;2023-11-19T10:38:24;17.73;;;1.77;;
78224;SDS011;67498;53.650;10.090;2023-11-19T10:40:50;16.40;;;2.20;;
78224;SDS011;67498;53.650;10.090;2023-11-19T10:43:17;19.17;;;1.70;;
78224;SDS011;67498;53.650;10.090;2023-11-19T10:45:43;18.60;;;2.17;;
78224;SDS011;67498;53.650;10.090;2023-11-19T10:48:09;14.20;;;1.73;;
78224;SDS011;67498;53.650;10.090;2023-11-19T10:50:38;19.95;;;1.40;;
78224;SDS011;67498;53.650;10.090;2023-11-19T10:53:04;15.73;;;2.30;;
78224;SDS011;67498;53.650;10.090;2023-11-19T10:55:31;14.98;;;1.33;;
78224;SDS011;67498;53.650;10.090;2023-11-19T10:58:01;53.35;;;15.18;;
78224;SDS011;67498;53.650;10.090;2023-11-19T11:03:19;24.05;;;2.15;;
78224;SDS011;67498;53.650;10.090;2023-11-19T11:05:47;12.80;;;1.27;;
78224;SDS011;67498;53.650;10.090;2023-11-19T11:08:13;20.10;;;1.83;;
78224;SDS011;67498;53.650;10.090;2023-11-19T11:10:39;9.43;;;1.55;;
78224;SDS011;67498;53.650;10.090;2023-11-19T11:13:09;10.70;;;1.20;;
78224;SDS011;67498;53.650;10.090;2023-11-19T11:15:35;12.00;;;1.80;;
78224;SDS011;67498;53.650;10.090;2023-11-19T11:18:02;16.65;;;1.02;;
78224;SDS011;67498;53.650;10.090;2023-11-19T11:20:28;11.03;;;1.63;;
78224;SDS011;67498;53.650;10.090;2023-11-19T11:26:11;12.95;;;1.80;;
78224;SDS011;67498;53.650;10.090;2023-11-19T11:38:11;17.30;;;2.35;;
78224;SDS011;67498;53.650;10.090;2023-11-19T11:40:42;11.05;;;1.05;;
78224;SDS011;67498;53.650;10.090;2023-11-19T11:48:57;16.08;;;1.00;;
78224;SDS011;67498;53.650;10.090;2023-11-19T11:54:09;13.48;;;1.45;;
78224;SDS011;67498;53.650;10.090;2023-11-19T11:56:58;22.45;;;1.90;;
78224;SDS011;67498;53.650;10.090;2023-11-19T11:59:47;12.60;;;1.97;;
78224;SDS011;67498;53.650;10.090;2023-11-19T12:02:25;18.65;;;2.60;;
78224;SDS011;67498;53.650;10.090;2023-11-19T12:05:00;11.20;;;1.70;;
78224;SDS011;67498;53.650;10.090;2023-11-19T12:07:31;12.98;;;1.95;;
78224;SDS011;67498;53.650;10.090;2023-11-19T12:10:08;10.00;;;1.48;;
78224;SDS011;67498;53.650;10.090;2023-11-19T12:12:39;12.53;;;1.17;;
78224;SDS011;67498;53.650;10.090;2023-11-19T12:17:48;11.90;;;1.55;;
78224;SDS011;67498;53.650;10.090;2023-11-19T12:20:15;13.20;;;0.98;;
78224;SDS011;67498;53.650;10.090;2023-11-19T12:22:41;14.07;;;1.20;;
78224;SDS011;67498;53.650;10.090;2023-11-19T12:25:11;13.30;;;1.30;;
78224;SDS011;67498;53.650;10.090;2023-11-19T12:27:48;10.70;;;1.17;;
78224;SDS011;67498;53.650;10.090;2023-11-19T12:30:29;10.77;;;1.52;;
78224;SDS011;67498;53.650;10.090;2023-11-19T12:32:57;11.95;;;2.45;;
78224;SDS011;67498;53.650;10.090;2023-11-19T12:35:23;8.53;;;1.43;;
78224;SDS011;67498;53.650;10.090;2023-11-19T12:38:03;12.65;;;1.55;;
78224;SDS011;67498;53.650;10.090;2023-11-19T12:41:02;21.17;;;1.80;;
78224;SDS011;67498;53.650;10.090;2023-11-19T12:43:38;14.20;;;1.53;;
78224;SDS011;67498;53.650;10.090;2023-11-19T12:46:22;21.30;;;2.22;;
78224;SDS011;67498;53.650;10.090;2023-11-19T12:49:02;11.85;;;1.35;;
78224;SDS011;67498;53.650;10.090;2023-11-19T12:51:31;12.95;;;1.75;;
78224;SDS011;67498;53.650;10.090;2023-11-19T12:53:59;16.88;;;2.30;;
78224;SDS011;67498;53.650;10.090;2023-11-19T12:56:24;11.80;;;1.00;;
78224;SDS011;67498;53.650;10.090;2023-11-19T12:58:50;12.73;;;1.83;;
78224;SDS011;67498;53.650;10.090;2023-11-19T13:01:16;12.97;;;2.07;;
78224;SDS011;67498;53.650;10.090;2023-11-19T13:03:45;14.40;;;2.30;;
78224;SDS011;67498;53.650;10.090;2023-11-19T13:06:15;14.00;;;1.63;;
78224;SDS011;67498;53.650;10.090;2023-11-19T13:08:47;12.57;;;1.67;;
78224;SDS011;67498;53.650;10.090;2023-11-19T13:11:15;14.10;;;1.58;;
78224;SDS011;67498;53.650;10.090;2023-11-19T13:16:29;15.52;;;1.65;;
78224;SDS011;67498;53.650;10.090;2023-11-19T13:18:55;28.85;;;2.75;;
78224;SDS011;67498;53.650;10.090;2023-11-19T13:21:20;10.30;;;1.30;;
78224;SDS011;67498;53.650;10.090;2023-11-19T13:23:45;16.27;;;1.40;;
78224;SDS011;67498;53.650;10.090;2023-11-19T13:26:11;16.13;;;1.43;;
78224;SDS011;67498;53.650;10.090;2023-11-19T13:28:37;7.63;;;1.73;;
78224;SDS011;67498;53.650;10.090;2023-11-19T13:31:03;9.20;;;0.83;;
78224;SDS011;67498;53.650;10.090;2023-11-19T13:33:28;20.98;;;2.45;;
78224;SDS011;67498;53.650;10.090;2023-11-19T13:35:56;13.13;;;0.95;;
78224;SDS011;67498;53.650;10.090;2023-11-19T13:38:22;14.47;;;2.33;;
78224;SDS011;67498;53.650;10.090;2023-11-19T13:40:48;6.50;;;0.82;;
78224;SDS011;67498;53.650;10.090;2023-11-19T13:43:14;23.57;;;3.60;;
78224;SDS011;67498;53.650;10.090;2023-11-19T13:45:40;18.60;;;3.40;;
78224;SDS011;67498;53.650;10.090;2023-11-19T13:48:05;11.90;;;1.05;;
78224;SDS011;67498;53.650;10.090;2023-11-19T13:50:31;11.70;;;1.00;;
78224;SDS011;67498;53.650;10.090;2023-11-19T13:52:57;12.65;;;1.88;;
78224;SDS011;67498;53.650;10.090;2023-11-19T13:55:25;9.73;;;1.27;;
78224;SDS011;67498;53.650;10.090;2023-11-19T13:57:51;6.72;;;1.08;;
78224;SDS011;67498;53.650;10.090;2023-11-19T14:00:16;9.73;;;1.93;;
78224;SDS011;67498;53.650;10.090;2023-11-19T14:02:46;11.63;;;2.85;;
78224;SDS011;67498;53.650;10.090;2023-11-19T14:05:15;3.93;;;0.90;;
78224;SDS011;67498;53.650;10.090;2023-11-19T14:07:44;8.07;;;0.80;;
78224;SDS011;67498;53.650;10.090;2023-11-19T14:10:13;13.88;;;1.27;;
78224;SDS011;67498;53.650;10.090;2023-11-19T14:12:39;22.27;;;7.13;;
78224;SDS011;67498;53.650;10.090;2023-11-19T14:15:10;70.68;;;25.67;;
78224;SDS011;67498;53.650;10.090;2023-11-19T14:17:37;28.77;;;4.78;;
78224;SDS011;67498;53.650;10.090;2023-11-19T14:20:03;5.63;;;0.80;;
78224;SDS011;67498;53.650;10.090;2023-11-19T14:25:49;13.27;;;1.63;;
78224;SDS011;67498;53.650;10.090;2023-11-19T14:28:17;11.45;;;1.38;;
78224;SDS011;67498;53.650;10.090;2023-11-19T14:31:00;10.07;;;4.50;;
78224;SDS011;67498;53.650;10.090;2023-11-19T14:33:26;24.52;;;6.03;;
78224;SDS011;67498;53.650;10.090;2023-11-19T14:35:54;9.50;;;1.23;;
78224;SDS011;67498;53.650;10.090;2023-11-19T14:38:19;12.98;;;0.90;;
78224;SDS011;67498;53.650;10.090;2023-11-19T14:40:45;16.50;;;1.93;;
78224;SDS011;67498;53.650;10.090;2023-11-19T14:43:10;12.77;;;1.90;;
78224;SDS011;67498;53.650;10.090;2023-11-19T14:45:36;14.47;;;1.90;;
78224;SDS011;67498;53.650;10.090;2023-11-19T14:50:50;14.18;;;2.00;;
78224;SDS011;67498;53.650;10.090;2023-11-19T14:53:16;7.80;;;1.50;;
78224;SDS011;67498;53.650;10.090;2023-11-19T14:55:42;8.43;;;0.80;;
78224;SDS011;67498;53.650;10.090;2023-11-19T14:58:07;6.77;;;0.63;;
78224;SDS011;67498;53.650;10.090;2023-11-19T15:00:33;7.73;;;0.63;;
78224;SDS011;67498;53.650;10.090;2023-11-19T15:02:58;4.53;;;0.60;;